Time;durP1;ratioP1;P1;durP2;ratioP2;P2;SDS_P1;SDS_P2;PMS_P1;PMS_P2;Temp;Humidity;BMP_temperature;BMP_pressure;BME280_temperature;BME280_humidity;BME280_pressure;Samples;Min_cycle;Max_cycle;Signal;HPM_P1;HPM_P2
2022/11/16 00:01:30;;;;;;;8.23;5.83;;;13.20;99.90;;;;;;5054147;28;20227;-58
2022/11/16 00:03:59;;;;;;;8.13;5.97;;;13.20;99.90;;;;;;5054277;28;20229;-58
2022/11/16 00:06:28;;;;;;;11.43;6.30;;;13.20;99.90;;;;;;5054021;28;20210;-58
2022/11/16 00:11:43;;;;;;;8.80;6.17;;;13.10;99.90;;;;;;5054443;28;20251;-57
2022/11/16 00:14:10;;;;;;;13.47;6.40;;;13.10;99.90;;;;;;5054314;28;20198;-57
2022/11/16 00:16:39;;;;;;;9.83;6.03;;;13.00;99.90;;;;;;5053688;28;20209;-57
2022/11/16 00:19:06;;;;;;;7.07;5.60;;;13.00;99.90;;;;;;5053483;28;20716;-58
2022/11/16 00:21:34;;;;;;;7.90;5.40;;;13.10;99.90;;;;;;5054636;28;20258;-57
2022/11/16 00:24:02;;;;;;;7.10;5.00;;;13.10;99.90;;;;;;5054060;28;20232;-57
2022/11/16 00:26:29;;;;;;;6.60;4.33;;;13.10;99.90;;;;;;5054131;28;20677;-58
2022/11/16 00:28:56;;;;;;;7.03;4.33;;;13.10;99.90;;;;;;5053659;28;20236;-58
2022/11/16 00:31:24;;;;;;;9.03;5.67;;;13.10;99.90;;;;;;5053878;28;20205;-58
2022/11/16 00:33:53;;;;;;;7.27;4.57;;;13.10;99.90;;;;;;5053562;28;20217;-57
2022/11/16 00:36:19;;;;;;;5.63;4.40;;;13.20;99.90;;;;;;5053795;28;20231;-58
2022/11/16 00:38:46;;;;;;;8.70;4.33;;;13.20;99.90;;;;;;5053089;28;20209;-58
2022/11/16 00:41:14;;;;;;;5.50;3.90;;;13.20;99.90;;;;;;5053613;28;20263;-57
2022/11/16 00:43:41;;;;;;;5.13;4.23;;;13.20;99.90;;;;;;5053679;28;20632;-57
2022/11/16 00:46:09;;;;;;;7.50;4.27;;;13.10;99.90;;;;;;5054310;28;20241;-59
2022/11/16 00:48:36;;;;;;;5.97;4.37;;;13.10;99.90;;;;;;5053986;28;20634;-60
2022/11/16 00:51:05;;;;;;;5.77;4.50;;;13.10;99.90;;;;;;5054723;28;20211;-60
2022/11/16 00:53:32;;;;;;;6.77;3.67;;;13.10;99.90;;;;;;5054504;28;20210;-59
2022/11/16 00:55:59;;;;;;;6.70;4.33;;;13.00;99.90;;;;;;5054426;28;20293;-60
2022/11/16 00:58:26;;;;;;;8.33;4.23;;;13.00;99.90;;;;;;5054038;28;20296;-59
2022/11/16 01:00:54;;;;;;;4.33;3.90;;;12.90;99.90;;;;;;5053815;28;20283;-59
2022/11/16 01:03:21;;;;;;;4.70;3.83;;;12.80;99.90;;;;;;5054306;28;20225;-59
2022/11/16 01:05:48;;;;;;;5.73;3.70;;;12.70;99.90;;;;;;5054080;28;20229;-60
2022/11/16 01:08:16;;;;;;;5.43;3.53;;;12.70;99.90;;;;;;5053868;28;20213;-59
2022/11/16 01:10:43;;;;;;;6.33;3.93;;;12.60;99.90;;;;;;5053921;28;20222;-59
2022/11/16 01:13:10;;;;;;;4.40;3.40;;;12.50;99.90;;;;;;5054437;28;20205;-59
2022/11/16 01:15:37;;;;;;;6.00;3.70;;;12.40;99.90;;;;;;5054264;28;20197;-60
2022/11/16 01:18:04;;;;;;;5.47;3.53;;;12.30;99.90;;;;;;5054254;28;20288;-59
2022/11/16 01:20:31;;;;;;;8.50;4.17;;;12.00;99.90;;;;;;5053431;28;20251;-59
2022/11/16 01:22:58;;;;;;;4.10;3.57;;;11.90;99.90;;;;;;5053766;28;20217;-60
2022/11/16 01:25:27;;;;;;;6.87;3.60;;;11.80;99.90;;;;;;5053756;28;20230;-59
2022/11/16 01:27:54;;;;;;;4.83;4.00;;;11.70;99.90;;;;;;5053604;28;20209;-59
2022/11/16 01:30:21;;;;;;;4.10;3.50;;;11.70;99.90;;;;;;5053369;28;20221;-60
2022/11/16 01:32:48;;;;;;;3.80;3.40;;;11.70;99.90;;;;;;5053751;28;20292;-60
2022/11/16 01:35:17;;;;;;;6.83;3.40;;;11.60;99.90;;;;;;5053753;28;20251;-60
2022/11/16 01:37:44;;;;;;;5.23;3.50;;;11.60;99.90;;;;;;5053825;28;20255;-60
2022/11/16 01:40:13;;;;;;;4.57;3.30;;;11.60;99.90;;;;;;5053234;28;20253;-59
2022/11/16 01:42:41;;;;;;;5.00;3.33;;;11.60;99.90;;;;;;5053612;28;20267;-59
2022/11/16 01:45:19;;;;;;;5.80;3.70;;;11.60;99.90;;;;;;5053180;28;20232;-59
2022/11/16 01:47:46;;;;;;;7.47;3.80;;;11.60;99.90;;;;;;5053451;28;20201;-59
2022/11/16 01:50:16;;;;;;;4.67;3.60;;;11.60;99.90;;;;;;5053006;28;20226;-59
2022/11/16 01:52:47;;;;;;;5.57;3.37;;;11.70;99.90;;;;;;5053356;28;20213;-59
2022/11/16 01:55:15;;;;;;;5.10;3.50;;;11.70;99.90;;;;;;5053299;28;20284;-59
2022/11/16 01:57:45;;;;;;;6.00;3.43;;;11.60;99.90;;;;;;5053186;28;20233;-59
2022/11/16 02:00:14;;;;;;;3.73;3.33;;;11.50;99.90;;;;;;5052465;28;20601;-60
2022/11/16 02:02:41;;;;;;;6.17;3.43;;;11.50;99.90;;;;;;5053147;28;20206;-60
2022/11/16 02:05:11;;;;;;;3.83;3.27;;;11.60;99.90;;;;;;5052918;28;20689;-60
2022/11/16 02:11:10;;;;;;;3.83;3.30;;;11.50;99.90;;;;;;5030094;28;20221;-60
2022/11/16 02:13:50;;;;;;;5.37;3.57;;;11.50;99.90;;;;;;5053459;28;20253;-60
2022/11/16 02:16:27;;;;;;;5.17;3.60;;;11.60;99.90;;;;;;5053787;28;20212;-57
2022/11/16 02:19:02;;;;;;;5.10;3.10;;;11.70;99.90;;;;;;5052833;28;20259;-60
2022/11/16 02:21:36;;;;;;;4.60;3.50;;;11.70;99.90;;;;;;5053213;28;20273;-60
2022/11/16 02:24:35;;;;;;;6.10;3.27;;;11.70;99.90;;;;;;5053428;28;20212;-60
2022/11/16 02:27:42;;;;;;;4.53;2.80;;;11.80;99.90;;;;;;5052933;28;20206;-60
2022/11/16 02:30:11;;;;;;;5.27;3.00;;;11.80;99.90;;;;;;5052695;28;20279;-60
2022/11/16 02:32:43;;;;;;;5.27;2.77;;;11.90;99.90;;;;;;5052836;28;20741;-60
2022/11/16 02:35:14;;;;;;;4.13;3.20;;;11.90;99.90;;;;;;5052311;28;20572;-60
2022/11/16 02:37:48;;;;;;;3.80;2.77;;;12.00;99.90;;;;;;5052512;28;20312;-60
2022/11/16 02:40:17;;;;;;;3.13;2.70;;;12.10;99.90;;;;;;5052298;28;20264;-60
2022/11/16 02:42:53;;;;;;;3.70;2.90;;;12.20;99.90;;;;;;5056716;28;20209;-60
2022/11/16 02:45:24;;;;;;;3.83;2.47;;;12.20;99.90;;;;;;5056192;28;20225;-60
2022/11/16 02:47:53;;;;;;;3.40;2.60;;;12.40;99.90;;;;;;5056367;28;20237;-60
2022/11/16 02:50:22;;;;;;;3.27;2.20;;;12.40;99.90;;;;;;5055987;28;20905;-60
2022/11/16 02:52:49;;;;;;;4.20;2.50;;;12.50;99.90;;;;;;5056141;28;20610;-60
2022/11/16 02:55:16;;;;;;;3.87;1.63;;;12.50;99.90;;;;;;5056605;28;20233;-60
2022/11/16 02:57:49;;;;;;;2.43;1.63;;;12.60;99.90;;;;;;5056758;28;20292;-60
2022/11/16 03:00:23;;;;;;;1.60;1.40;;;12.60;99.90;;;;;;5056106;28;20230;-60
2022/11/16 03:03:08;;;;;;;1.73;1.53;;;12.70;99.90;;;;;;5056744;28;20205;-60
2022/11/16 03:05:39;;;;;;;1.93;1.47;;;12.70;99.90;;;;;;5055646;28;20228;-60
2022/11/16 03:08:14;;;;;;;2.00;1.60;;;12.80;99.90;;;;;;5056574;28;20228;-60
2022/11/16 03:13:33;;;;;;;2.73;1.90;;;13.00;99.90;;;;;;5056671;28;20616;-60
2022/11/16 03:16:05;;;;;;;3.63;1.53;;;13.00;99.90;;;;;;5056735;28;20221;-60
2022/11/16 03:18:32;;;;;;;2.00;1.80;;;13.00;99.90;;;;;;5056720;28;20240;-60
2022/11/16 03:21:09;;;;;;;2.27;1.70;;;13.10;99.90;;;;;;5056362;28;20217;-60
2022/11/16 03:23:37;;;;;;;2.37;1.60;;;13.10;99.90;;;;;;5056368;28;20212;-60
2022/11/16 03:26:07;;;;;;;2.47;1.73;;;13.10;99.90;;;;;;5057005;28;20225;-60
2022/11/16 03:28:41;;;;;;;3.43;1.50;;;13.10;99.90;;;;;;5056651;28;20212;-60
2022/11/16 03:31:14;;;;;;;5.30;1.67;;;13.10;99.90;;;;;;5056334;28;20229;-60
2022/11/16 03:33:45;;;;;;;2.23;1.60;;;13.20;99.90;;;;;;5056796;28;20252;-58
2022/11/16 03:36:17;;;;;;;1.50;1.23;;;13.20;99.90;;;;;;5056563;28;20216;-60
2022/11/16 03:38:49;;;;;;;3.50;1.33;;;13.20;99.90;;;;;;5056272;28;20205;-58
2022/11/16 03:41:17;;;;;;;1.43;1.30;;;13.20;99.90;;;;;;5056351;28;20673;-58
2022/11/16 03:43:45;;;;;;;5.73;1.67;;;13.20;99.90;;;;;;5056536;28;20216;-58
2022/11/16 03:46:15;;;;;;;1.80;1.50;;;13.20;99.90;;;;;;5056315;28;20229;-58
2022/11/16 03:48:43;;;;;;;1.90;1.50;;;13.30;99.90;;;;;;5055904;28;20205;-58
2022/11/16 03:51:11;;;;;;;1.40;1.30;;;13.20;99.90;;;;;;5055118;28;20581;-58
2022/11/16 03:53:38;;;;;;;2.30;1.30;;;13.30;99.90;;;;;;5056127;28;20236;-58
2022/11/16 03:56:05;;;;;;;2.10;1.00;;;13.30;99.90;;;;;;5055916;28;20270;-58
2022/11/16 03:58:32;;;;;;;1.70;1.30;;;13.30;99.90;;;;;;5055637;28;20202;-58
2022/11/16 04:00:59;;;;;;;1.87;1.30;;;13.30;99.90;;;;;;5055382;28;20210;-58
2022/11/16 04:03:27;;;;;;;3.07;1.50;;;13.40;99.90;;;;;;5056639;28;20237;-58
2022/11/16 04:25:15;;;;;;;1.80;1.30;;;13.50;99.90;;;;;;5032258;28;20262;-58
2022/11/16 04:37:47;;;;;;;2.47;1.33;;;13.50;99.90;;;;;;5055306;28;20267;-58
2022/11/16 04:38:45;;;;;;;2.50;2.10;;;13.60;99.90;;;;;;5055067;28;20263;-58
2022/11/16 04:42:13;;;;;;;5.20;2.17;;;13.60;99.90;;;;;;5054754;28;20209;-58
2022/11/16 04:43:59;;;;;;;2.20;2.00;;;13.60;99.90;;;;;;5055041;28;20205;-58
2022/11/16 04:49:10;;;;;;;5.07;2.00;;;13.40;99.90;;;;;;5054510;28;20279;-58
2022/11/16 04:51:39;;;;;;;1.90;1.60;;;13.40;99.90;;;;;;5054743;28;20201;-59
2022/11/16 04:54:06;;;;;;;1.97;1.70;;;13.40;99.90;;;;;;5054701;28;20231;-58
2022/11/16 04:56:33;;;;;;;2.93;1.97;;;13.40;99.90;;;;;;5054777;28;20259;-58
2022/11/16 04:59:00;;;;;;;2.07;1.50;;;13.50;99.90;;;;;;5054696;28;20316;-58
2022/11/16 05:04:07;;;;;;;2.00;1.60;;;13.50;99.90;;;;;;5053662;28;20197;-59
2022/11/16 05:06:34;;;;;;;4.00;2.30;;;13.50;99.90;;;;;;5054446;28;20320;-59
2022/11/16 05:09:03;;;;;;;2.77;1.50;;;13.50;99.90;;;;;;5053987;28;20324;-59
2022/11/16 05:11:30;;;;;;;2.93;2.00;;;13.50;99.90;;;;;;5054213;28;20673;-60
2022/11/16 05:13:57;;;;;;;5.53;1.73;;;13.40;99.90;;;;;;5053928;28;20206;-60
2022/11/16 05:16:24;;;;;;;4.43;2.27;;;13.20;99.90;;;;;;5054436;28;20669;-59
2022/11/16 05:21:32;;;;;;;2.40;1.90;;;13.30;99.90;;;;;;5053312;28;20570;-59
2022/11/16 05:26:45;;;;;;;5.00;2.87;;;13.30;99.90;;;;;;5053539;28;20708;-60
2022/11/16 05:29:12;;;;;;;3.60;2.80;;;13.30;99.90;;;;;;5053085;28;20584;-59
2022/11/16 05:31:38;;;;;;;3.73;2.83;;;13.30;99.90;;;;;;5053716;28;20613;-59
2022/11/16 05:34:05;;;;;;;2.83;2.60;;;13.20;99.90;;;;;;5053879;28;20221;-60
2022/11/16 05:36:32;;;;;;;5.83;2.87;;;13.20;99.90;;;;;;5053632;28;20205;-59
2022/11/16 05:38:59;;;;;;;4.73;3.13;;;13.10;99.90;;;;;;5053609;28;20782;-60
2022/11/16 05:41:26;;;;;;;4.50;2.77;;;13.20;99.90;;;;;;5053125;28;20205;-59
2022/11/16 05:43:54;;;;;;;5.07;3.50;;;13.20;99.90;;;;;;5052972;28;20207;-60
2022/11/16 05:46:22;;;;;;;4.77;3.23;;;13.20;99.90;;;;;;5053103;28;20294;-60
2022/11/16 05:48:49;;;;;;;9.50;4.07;;;13.20;99.90;;;;;;5053100;28;20247;-60
2022/11/16 05:51:16;;;;;;;4.97;2.83;;;13.20;99.90;;;;;;5052326;28;20205;-59
2022/11/16 05:53:43;;;;;;;5.57;3.20;;;13.20;99.90;;;;;;5053285;28;20202;-60
2022/11/16 05:56:10;;;;;;;4.43;3.50;;;13.30;99.90;;;;;;5053300;28;20197;-60
2022/11/16 05:58:37;;;;;;;3.67;3.20;;;13.20;99.90;;;;;;5053215;28;20212;-59
2022/11/16 06:01:06;;;;;;;5.67;3.17;;;13.20;99.90;;;;;;5052787;28;20215;-59
2022/11/16 06:03:34;;;;;;;6.00;3.77;;;13.00;99.90;;;;;;5053626;28;20269;-58
2022/11/16 06:06:01;;;;;;;6.17;3.90;;;12.90;99.90;;;;;;5052902;28;20275;-59
2022/11/16 06:08:28;;;;;;;5.10;4.20;;;12.90;99.90;;;;;;5053076;28;20209;-59
2022/11/16 06:10:55;;;;;;;5.13;4.07;;;12.90;99.90;;;;;;5052552;28;20209;-58
2022/11/16 06:13:22;;;;;;;4.57;3.80;;;12.80;99.90;;;;;;5052980;28;20209;-58
2022/11/16 06:15:48;;;;;;;4.00;3.50;;;12.70;99.90;;;;;;5054000;28;20208;-59
2022/11/16 06:18:17;;;;;;;3.87;2.83;;;12.70;99.90;;;;;;5056586;28;20205;-59
2022/11/16 06:20:44;;;;;;;4.67;4.20;;;12.50;99.90;;;;;;5056216;28;20260;-58
2022/11/16 06:23:11;;;;;;;3.10;2.80;;;12.40;99.90;;;;;;5056478;28;20213;-58
2022/11/16 06:25:39;;;;;;;2.83;2.53;;;12.30;99.90;;;;;;5056434;28;20229;-59
2022/11/16 06:28:06;;;;;;;5.43;3.30;;;12.20;99.90;;;;;;5056479;28;20213;-58
2022/11/16 06:30:33;;;;;;;10.20;6.83;;;12.20;99.90;;;;;;5056209;28;20231;-58
2022/11/16 06:33:00;;;;;;;4.87;3.70;;;12.20;99.90;;;;;;5057545;28;20219;-58
2022/11/16 06:35:29;;;;;;;4.47;2.93;;;12.30;99.90;;;;;;5058135;28;20267;-58
2022/11/16 06:37:55;;;;;;;3.23;2.37;;;12.30;99.90;;;;;;5057800;28;20296;-58
2022/11/16 06:40:22;;;;;;;3.90;3.00;;;12.30;99.90;;;;;;5057016;28;20245;-58
2022/11/16 06:42:49;;;;;;;3.93;2.50;;;12.50;99.90;;;;;;5056618;28;20209;-58
2022/11/16 06:45:17;;;;;;;3.73;3.07;;;12.40;99.90;;;;;;5056321;28;20236;-58
2022/11/16 06:47:44;;;;;;;7.23;5.27;;;12.50;99.90;;;;;;5056178;28;20202;-58
2022/11/16 06:50:11;;;;;;;4.57;3.10;;;12.60;99.90;;;;;;5055907;28;20229;-58
2022/11/16 06:52:39;;;;;;;4.67;2.30;;;12.70;99.90;;;;;;5056093;28;20638;-59
2022/11/16 06:55:07;;;;;;;4.43;2.60;;;12.70;99.90;;;;;;5056074;28;20208;-59
2022/11/16 06:57:35;;;;;;;3.80;2.87;;;12.70;99.90;;;;;;5056335;28;20292;-64
2022/11/16 07:00:02;;;;;;;5.03;3.60;;;12.80;99.90;;;;;;5056429;28;20638;-58
2022/11/16 07:02:29;;;;;;;6.23;3.20;;;12.80;99.90;;;;;;5055593;28;20653;-61
2022/11/16 07:04:56;;;;;;;7.23;3.93;;;12.80;99.90;;;;;;5055885;28;20205;-56
2022/11/16 07:07:22;;;;;;;6.53;3.80;;;12.90;99.90;;;;;;5055679;28;20578;-56
2022/11/16 07:09:51;;;;;;;4.97;3.03;;;13.00;99.90;;;;;;5055544;28;20229;-54
2022/11/16 07:12:17;;;;;;;3.60;2.53;;;13.10;99.90;;;;;;5056363;28;20210;-55
2022/11/16 07:14:45;;;;;;;4.60;2.80;;;13.10;99.90;;;;;;5055940;28;20217;-55
2022/11/16 07:17:12;;;;;;;3.47;2.80;;;13.20;99.90;;;;;;5056206;28;20205;-56
2022/11/16 07:19:39;;;;;;;3.57;3.03;;;13.20;99.90;;;;;;5055509;28;20603;-56
2022/11/16 07:22:06;;;;;;;3.57;2.67;;;13.20;99.90;;;;;;5055828;28;20210;-56
2022/11/16 07:24:33;;;;;;;6.97;4.77;;;13.20;99.90;;;;;;5055928;28;20647;-56
2022/11/16 07:27:01;;;;;;;5.43;4.07;;;13.20;99.90;;;;;;5054982;28;20603;-56
2022/11/16 07:29:29;;;;;;;11.03;5.40;;;13.30;99.90;;;;;;5054802;28;20226;-56
2022/11/16 07:31:56;;;;;;;3.93;3.07;;;13.40;99.90;;;;;;5055417;28;20205;-56
2022/11/16 07:34:23;;;;;;;4.03;2.37;;;13.40;99.90;;;;;;5055168;28;20681;-56
2022/11/16 07:36:50;;;;;;;2.40;2.20;;;13.50;99.90;;;;;;5054951;28;20205;-56
2022/11/16 07:39:16;;;;;;;3.17;2.50;;;13.50;99.90;;;;;;5055069;28;20243;-56
2022/11/16 07:41:45;;;;;;;3.17;2.77;;;13.50;99.90;;;;;;5054991;28;20205;-56
2022/11/16 07:44:13;;;;;;;5.03;2.50;;;13.70;99.90;;;;;;5055150;28;20210;-56
2022/11/16 07:46:40;;;;;;;7.37;3.27;;;13.80;99.90;;;;;;5054664;28;20232;-56
2022/11/16 07:49:07;;;;;;;4.17;3.00;;;13.80;99.90;;;;;;5054902;28;20235;-56
2022/11/16 07:51:33;;;;;;;4.00;2.43;;;13.80;99.90;;;;;;5054437;28;20206;-57
2022/11/16 07:54:00;;;;;;;8.13;4.40;;;13.90;99.90;;;;;;5055263;28;20209;-57
2022/11/16 07:56:27;;;;;;;4.57;2.53;;;14.00;99.90;;;;;;5054702;28;20198;-57
2022/11/16 07:58:54;;;;;;;4.50;2.20;;;14.10;99.90;;;;;;5054790;28;20249;-57
2022/11/16 08:01:22;;;;;;;4.47;2.40;;;14.20;99.90;;;;;;5054305;28;20288;-57
2022/11/16 08:03:53;;;;;;;2.23;1.80;;;14.30;99.90;;;;;;5054277;28;20209;-58
2022/11/16 08:06:23;;;;;;;4.83;2.50;;;14.50;99.90;;;;;;5054155;28;20697;-57
2022/11/16 08:08:50;;;;;;;4.77;2.47;;;14.60;99.90;;;;;;5054414;28;20226;-57
2022/11/16 08:11:17;;;;;;;5.20;2.30;;;14.70;99.90;;;;;;5054042;28;20212;-56
2022/11/16 08:13:44;;;;;;;4.00;3.20;;;14.80;99.90;;;;;;5054277;28;20206;-57
2022/11/16 08:16:14;;;;;;;4.27;2.40;;;14.90;99.90;;;;;;5054433;28;20275;-57
2022/11/16 08:18:43;;;;;;;3.87;1.80;;;15.00;99.90;;;;;;5054202;28;20237;-57
2022/11/16 08:21:11;;;;;;;3.27;1.73;;;15.10;99.90;;;;;;5053846;28;20210;-57
2022/11/16 08:23:39;;;;;;;3.13;1.80;;;15.20;99.90;;;;;;5054343;28;20213;-57
2022/11/16 08:26:09;;;;;;;7.90;4.20;;;15.20;99.90;;;;;;5053963;28;20827;-57
2022/11/16 08:28:37;;;;;;;4.57;1.80;;;15.30;99.90;;;;;;5053733;28;20256;-57
2022/11/16 08:31:08;;;;;;;2.10;1.43;;;15.30;99.90;;;;;;5053531;28;20201;-57
2022/11/16 08:33:35;;;;;;;1.93;1.40;;;15.20;99.90;;;;;;5054028;28;20229;-57
2022/11/16 08:36:05;;;;;;;2.63;1.50;;;15.30;99.90;;;;;;5053572;28;20705;-57
2022/11/16 08:38:31;;;;;;;4.80;1.50;;;15.40;99.90;;;;;;5053229;28;20212;-57
2022/11/16 08:40:59;;;;;;;5.07;1.77;;;15.50;99.90;;;;;;5052938;28;20205;-57
2022/11/16 08:43:26;;;;;;;4.30;1.47;;;15.70;99.90;;;;;;5054056;28;20312;-57
2022/11/16 08:45:53;;;;;;;2.83;1.50;;;15.90;99.90;;;;;;5053695;28;20245;-58
2022/11/16 08:48:20;;;;;;;2.10;1.37;;;16.00;99.90;;;;;;5053415;28;20210;-58
2022/11/16 08:50:47;;;;;;;2.10;1.20;;;16.10;99.90;;;;;;5052843;28;20232;-57
2022/11/16 08:53:15;;;;;;;1.53;1.00;;;16.20;99.90;;;;;;5053100;28;20201;-58
2022/11/16 08:55:42;;;;;;;2.23;1.20;;;16.30;99.90;;;;;;5053078;28;20259;-57
2022/11/16 08:58:09;;;;;;;2.83;1.13;;;16.40;99.90;;;;;;5053515;28;20209;-57
2022/11/16 09:00:37;;;;;;;2.38;1.55;;;16.40;99.90;;;;;;5052739;28;20229;-57
2022/11/16 09:03:04;;;;;;;1.92;1.23;;;16.60;99.90;;;;;;5053050;28;20736;-57
2022/11/16 09:05:30;;;;;;;2.53;1.50;;;16.60;99.90;;;;;;5052880;28;20209;-57
2022/11/16 09:07:57;;;;;;;2.67;1.27;;;16.60;99.90;;;;;;5052779;28;20229;-57
2022/11/16 09:10:25;;;;;;;3.72;1.42;;;16.70;99.90;;;;;;5052349;28;20222;-57
2022/11/16 09:12:52;;;;;;;3.22;1.17;;;16.70;99.90;;;;;;5053310;28;20209;-57
2022/11/16 09:15:19;;;;;;;2.40;1.43;;;16.60;99.90;;;;;;5053494;28;20685;-58
2022/11/16 09:17:47;;;;;;;5.07;1.63;;;16.50;99.90;;;;;;5053118;28;20201;-57
2022/11/16 09:20:13;;;;;;;3.15;1.33;;;16.50;99.90;;;;;;5052391;28;20283;-57
2022/11/16 09:22:41;;;;;;;3.97;1.40;;;16.50;99.90;;;;;;5052722;28;20225;-58
2022/11/16 09:25:09;;;;;;;3.97;1.17;;;16.50;99.90;;;;;;5052891;28;20212;-57
2022/11/16 09:27:38;;;;;;;4.37;1.40;;;16.50;99.90;;;;;;5052409;28;20594;-57
2022/11/16 09:30:06;;;;;;;1.83;1.10;;;16.50;99.90;;;;;;5052108;28;20256;-57
2022/11/16 09:32:32;;;;;;;3.45;1.20;;;16.50;99.90;;;;;;5052476;28;20214;-57
2022/11/16 09:34:59;;;;;;;4.33;1.33;;;16.70;99.90;;;;;;5052537;28;20202;-57
2022/11/16 09:37:26;;;;;;;3.05;1.60;;;16.80;99.90;;;;;;5052675;28;20201;-57
2022/11/16 09:39:53;;;;;;;3.63;1.20;;;16.80;99.90;;;;;;5051786;28;20771;-57
2022/11/16 09:42:32;;;;;;;2.35;1.55;;;16.70;99.90;;;;;;5052678;28;20245;-61
2022/11/16 09:45:04;;;;;;;4.75;1.20;;;16.60;99.90;;;;;;5052452;28;20211;-57
2022/11/16 09:47:47;;;;;;;2.60;1.20;;;16.30;99.90;;;;;;5052334;28;20297;-57
2022/11/16 09:50:41;;;;;;;2.85;1.02;;;16.10;99.90;;;;;;5051763;28;20266;-57
2022/11/16 09:53:22;;;;;;;2.10;0.90;;;15.80;99.90;;;;;;5052407;28;20205;-57
2022/11/16 09:55:52;;;;;;;5.70;1.33;;;15.50;99.90;;;;;;5051957;28;20206;-57
2022/11/16 09:58:23;;;;;;;2.67;1.20;;;15.30;99.90;;;;;;5052051;28;20701;-57
2022/11/16 10:01:00;;;;;;;3.27;1.40;;;15.20;99.90;;;;;;5051560;28;20229;-57
2022/11/16 10:03:28;;;;;;;5.13;1.40;;;15.40;99.90;;;;;;5052303;28;20256;-57
2022/11/16 10:06:01;;;;;;;2.47;1.30;;;15.40;99.90;;;;;;5052329;28;20208;-57
2022/11/16 10:08:42;;;;;;;2.33;1.57;;;15.30;99.90;;;;;;5052417;28;20247;-57
2022/11/16 10:11:42;;;;;;;4.10;1.83;;;15.20;99.90;;;;;;5052291;28;20218;-56
2022/11/16 10:14:27;;;;;;;4.50;1.63;;;15.30;99.90;;;;;;5032958;28;20718;-56
2022/11/16 10:17:01;;;;;;;3.17;1.50;;;15.30;99.90;;;;;;5052360;28;20216;-56
2022/11/16 10:19:36;;;;;;;4.27;1.37;;;15.40;99.90;;;;;;5052249;28;20233;-57
2022/11/16 10:22:10;;;;;;;3.57;1.53;;;15.50;99.90;;;;;;5052324;28;20205;-57
2022/11/16 10:24:49;;;;;;;3.53;1.38;;;15.60;99.90;;;;;;5052116;28;20211;-57
2022/11/16 10:27:37;;;;;;;3.10;0.87;;;15.80;99.90;;;;;;5052220;28;20220;-57
2022/11/16 10:30:09;;;;;;;4.00;1.33;;;16.00;99.90;;;;;;5051473;28;20225;-57
2022/11/16 10:32:44;;;;;;;3.00;1.00;;;16.20;99.90;;;;;;5052017;28;20271;-56
2022/11/16 10:35:17;;;;;;;4.23;1.83;;;16.40;99.90;;;;;;5051622;28;20205;-56
2022/11/16 10:37:47;;;;;;;4.60;1.27;;;16.50;99.90;;;;;;5051828;28;20207;-56
2022/11/16 10:40:22;;;;;;;6.13;1.40;;;16.60;99.90;;;;;;5051183;28;20233;-56
2022/11/16 10:42:57;;;;;;;4.93;1.20;;;16.70;99.90;;;;;;5052029;28;20240;-57
2022/11/16 10:45:28;;;;;;;3.53;0.95;;;16.80;99.90;;;;;;5051736;28;20206;-56
2022/11/16 10:48:02;;;;;;;3.65;1.20;;;16.90;99.90;;;;;;5051336;28;20703;-57
2022/11/16 10:50:37;;;;;;;2.83;1.05;;;17.00;99.90;;;;;;5051038;28;20229;-57
2022/11/16 10:53:04;;;;;;;2.08;0.75;;;17.20;99.90;;;;;;5051676;28;20288;-56
2022/11/16 10:55:31;;;;;;;3.35;1.08;;;17.30;99.90;;;;;;5051456;28;20636;-57
2022/11/16 10:58:00;;;;;;;3.15;1.27;;;17.40;99.90;;;;;;5051533;28;20251;-57
2022/11/16 11:00:47;;;;;;;2.30;0.98;;;17.40;99.90;;;;;;5050696;28;20229;-57
2022/11/16 11:03:30;;;;;;;2.83;1.30;;;17.40;99.90;;;;;;5055186;28;20662;-58
2022/11/16 11:05:58;;;;;;;4.07;1.30;;;17.30;99.90;;;;;;5055258;28;20673;-58
2022/11/16 11:08:29;;;;;;;1.75;1.20;;;17.40;99.90;;;;;;5055304;28;20230;-57
2022/11/16 11:12:36;;;;;;;3.03;1.13;;;17.50;99.90;;;;;;5054644;28;20650;-58
2022/11/16 11:14:03;;;;;;;1.35;1.00;;;17.60;99.90;;;;;;5054984;28;20266;-57
2022/11/16 11:16:30;;;;;;;3.20;1.20;;;17.40;99.90;;;;;;5054989;28;20255;-57
2022/11/16 11:19:16;;;;;;;3.03;2.10;;;17.30;99.90;;;;;;5055172;28;20249;-57
2022/11/16 11:21:43;;;;;;;4.85;1.65;;;17.10;99.90;;;;;;5054556;28;20223;-57
2022/11/16 11:24:16;;;;;;;4.72;1.38;;;17.00;99.90;;;;;;5055058;28;20213;-57
2022/11/16 11:26:43;;;;;;;3.35;1.17;;;17.00;99.90;;;;;;5054772;28;20240;-57
2022/11/16 11:29:22;;;;;;;2.78;1.30;;;16.80;99.90;;;;;;5054789;28;20240;-57
2022/11/16 11:31:52;;;;;;;3.88;1.15;;;16.60;99.90;;;;;;5054091;28;20214;-57
2022/11/16 11:34:22;;;;;;;2.10;0.90;;;16.40;99.90;;;;;;5054938;28;20205;-57
2022/11/16 11:36:52;;;;;;;2.70;1.30;;;16.30;99.90;;;;;;5054944;28;20202;-57
2022/11/16 11:39:36;;;;;;;2.10;1.30;;;16.30;99.90;;;;;;5054370;28;20264;-56
2022/11/16 11:42:21;;;;;;;5.00;1.58;;;16.40;99.90;;;;;;5054196;28;20241;-57
2022/11/16 11:44:55;;;;;;;2.50;1.15;;;16.50;99.90;;;;;;5054782;28;20201;-56
2022/11/16 11:47:38;;;;;;;4.35;1.35;;;16.60;99.90;;;;;;5054554;28;20231;-57
2022/11/16 11:50:16;;;;;;;4.63;1.30;;;16.50;99.90;;;;;;5053761;28;20225;-57
2022/11/16 11:52:50;;;;;;;3.97;1.60;;;16.30;99.90;;;;;;5054357;28;20221;-56
2022/11/16 11:55:18;;;;;;;5.03;1.48;;;16.20;99.90;;;;;;5054450;28;20205;-56
2022/11/16 11:57:47;;;;;;;3.60;1.27;;;16.00;99.90;;;;;;5054342;28;20202;-56
2022/11/16 12:00:16;;;;;;;4.20;1.67;;;15.90;99.90;;;;;;5053672;28;20308;-57
2022/11/16 12:03:18;;;;;;;4.40;1.40;;;15.80;99.90;;;;;;5053975;28;20213;-57
2022/11/16 12:06:02;;;;;;;2.97;1.10;;;15.60;99.90;;;;;;5018345;28;20205;-56
2022/11/16 12:08:42;;;;;;;3.60;1.17;;;15.50;99.90;;;;;;5053949;28;20230;-57
2022/11/16 12:11:21;;;;;;;2.80;1.30;;;15.50;99.90;;;;;;5053470;28;20213;-56
2022/11/16 12:14:02;;;;;;;3.22;0.93;;;15.50;99.90;;;;;;5053925;28;20202;-56
2022/11/16 12:16:37;;;;;;;2.73;1.00;;;15.50;99.90;;;;;;5054044;28;20206;-56
2022/11/16 12:19:22;;;;;;;3.80;1.50;;;15.50;99.90;;;;;;5053730;28;20229;-56
2022/11/16 12:22:01;;;;;;;3.17;1.33;;;15.30;99.90;;;;;;5053043;28;20263;-57
2022/11/16 12:24:44;;;;;;;3.77;1.20;;;15.20;99.90;;;;;;5053844;28;20295;-56
2022/11/16 12:27:25;;;;;;;2.17;1.10;;;15.20;99.90;;;;;;5053407;28;20221;-56
2022/11/16 12:30:01;;;;;;;2.97;1.40;;;15.00;99.90;;;;;;5053073;28;20732;-57
2022/11/16 12:32:50;;;;;;;5.57;1.40;;;14.90;99.90;;;;;;5053802;28;20296;-58
2022/11/16 12:35:41;;;;;;;4.00;1.47;;;14.90;99.90;;;;;;5053732;28;20653;-57
2022/11/16 12:38:26;;;;;;;4.20;1.20;;;14.80;99.90;;;;;;5053457;28;20224;-57
2022/11/16 12:41:05;;;;;;;2.60;1.20;;;14.70;99.90;;;;;;5053061;28;20241;-57
2022/11/16 12:43:39;;;;;;;3.70;1.43;;;14.90;99.90;;;;;;5053794;28;20213;-57
2022/11/16 12:46:16;;;;;;;4.20;1.73;;;15.30;99.90;;;;;;5054160;28;20205;-63
2022/11/16 12:49:16;;;;;;;3.00;1.00;;;15.80;99.90;;;;;;5054158;28;20237;-59
2022/11/16 12:51:55;;;;;;;2.97;1.40;;;16.10;99.90;;;;;;5044064;28;20693;-57
2022/11/16 12:54:44;;;;;;;2.13;1.00;;;16.30;99.90;;;;;;5065416;28;20288;-57
2022/11/16 12:57:19;;;;;;;2.40;1.43;;;16.50;99.90;;;;;;5072386;28;20756;-57
2022/11/16 13:00:04;;;;;;;2.47;1.00;;;16.60;99.90;;;;;;5072113;28;20239;-57
2022/11/16 13:02:57;;;;;;;1.48;0.90;;;16.70;99.90;;;;;;5071738;28;20204;-57
2022/11/16 13:05:29;;;;;;;1.63;0.90;;;16.80;99.90;;;;;;5072242;28;20215;-56
2022/11/16 13:08:02;;;;;;;2.90;1.00;;;16.90;99.90;;;;;;5072558;28;20235;-56
2022/11/16 13:10:35;;;;;;;2.00;0.87;;;16.90;99.90;;;;;;5072680;28;20627;-57
2022/11/16 13:13:06;;;;;;;3.10;0.82;;;16.90;99.90;;;;;;5072963;28;20211;-56
2022/11/16 13:15:36;;;;;;;1.73;0.90;;;17.00;99.90;;;;;;5072540;28;20338;-65
2022/11/16 13:18:06;;;;;;;2.72;1.10;;;17.00;99.90;;;;;;5073458;28;20231;-60
2022/11/16 13:20:40;;;;;;;4.47;0.95;;;17.10;99.90;;;;;;5072700;28;20260;-59
2022/11/16 13:23:25;;;;;;;2.33;0.93;;;17.30;99.90;;;;;;5073212;28;20590;-59
2022/11/16 13:26:01;;;;;;;3.65;1.42;;;17.50;99.90;;;;;;5073298;28;20209;-59
2022/11/16 13:28:34;;;;;;;2.38;0.80;;;17.60;99.90;;;;;;5073114;28;20307;-59
2022/11/16 13:31:08;;;;;;;2.97;1.20;;;17.60;99.90;;;;;;5073037;28;20215;-60
2022/11/16 13:33:42;;;;;;;1.92;0.65;;;17.40;99.90;;;;;;5072866;28;20672;-64
2022/11/16 13:36:45;;;;;;;1.75;0.90;;;17.30;99.90;;;;;;5074338;28;20291;-57
2022/11/16 13:39:13;;;;;;;1.30;0.60;;;17.30;99.90;;;;;;5075063;28;20236;-57
2022/11/16 13:41:43;;;;;;;3.35;1.30;;;17.40;99.90;;;;;;5074204;28;20211;-56
2022/11/16 13:44:27;;;;;;;4.55;2.15;;;17.50;99.90;;;;;;5073673;28;20200;-56
2022/11/16 13:46:58;;;;;;;2.28;1.10;;;17.60;99.90;;;;;;5073591;28;20208;-57
2022/11/16 13:49:29;;;;;;;3.45;1.00;;;17.70;99.90;;;;;;5073460;28;20232;-57
2022/11/16 13:51:58;;;;;;;3.88;1.27;;;17.90;99.90;;;;;;5073321;28;20248;-56
2022/11/16 13:54:34;;;;;;;4.13;1.50;;;18.00;99.90;;;;;;5072620;28;20213;-57